sensor_id;sensor_type;location;lat;lon;timestamp;P1;durP1;ratioP1;P2;durP2;ratioP2
39300;SDS011;25019;42.626;23.380;2023-12-20T00:01:05;10.37;;;6.57;;
39300;SDS011;25019;42.626;23.380;2023-12-20T00:03:31;10.67;;;6.80;;
39300;SDS011;25019;42.626;23.380;2023-12-20T00:05:57;12.60;;;6.17;;
39300;SDS011;25019;42.626;23.380;2023-12-20T00:08:22;10.13;;;6.03;;
39300;SDS011;25019;42.626;23.380;2023-12-20T00:10:48;10.57;;;6.57;;
39300;SDS011;25019;42.626;23.380;2023-12-20T00:13:14;12.00;;;7.03;;
39300;SDS011;25019;42.626;23.380;2023-12-20T00:15:40;12.70;;;7.33;;
39300;SDS011;25019;42.626;23.380;2023-12-20T00:18:06;11.57;;;6.83;;
39300;SDS011;25019;42.626;23.380;2023-12-20T00:20:31;11.90;;;7.33;;
39300;SDS011;25019;42.626;23.380;2023-12-20T00:22:57;13.10;;;7.97;;
39300;SDS011;25019;42.626;23.380;2023-12-20T00:25:23;13.30;;;7.07;;
39300;SDS011;25019;42.626;23.380;2023-12-20T00:27:49;13.30;;;7.20;;
39300;SDS011;25019;42.626;23.380;2023-12-20T00:30:15;11.47;;;6.40;;
39300;SDS011;25019;42.626;23.380;2023-12-20T00:32:42;12.53;;;6.70;;
39300;SDS011;25019;42.626;23.380;2023-12-20T00:35:14;10.60;;;5.83;;
39300;SDS011;25019;42.626;23.380;2023-12-20T00:37:40;10.87;;;5.33;;
39300;SDS011;25019;42.626;23.380;2023-12-20T00:40:06;9.30;;;5.70;;
39300;SDS011;25019;42.626;23.380;2023-12-20T00:42:32;9.53;;;5.57;;
39300;SDS011;25019;42.626;23.380;2023-12-20T00:44:59;9.80;;;6.00;;
39300;SDS011;25019;42.626;23.380;2023-12-20T00:47:25;9.33;;;5.43;;
39300;SDS011;25019;42.626;23.380;2023-12-20T00:49:51;8.27;;;4.97;;
39300;SDS011;25019;42.626;23.380;2023-12-20T00:52:17;9.87;;;5.80;;
39300;SDS011;25019;42.626;23.380;2023-12-20T00:54:43;9.33;;;5.37;;
39300;SDS011;25019;42.626;23.380;2023-12-20T00:57:09;8.87;;;5.07;;
39300;SDS011;25019;42.626;23.380;2023-12-20T00:59:35;8.57;;;5.20;;
39300;SDS011;25019;42.626;23.380;2023-12-20T01:02:01;11.43;;;5.57;;
39300;SDS011;25019;42.626;23.380;2023-12-20T01:04:26;8.70;;;4.73;;
39300;SDS011;25019;42.626;23.380;2023-12-20T01:06:52;8.33;;;5.00;;
39300;SDS011;25019;42.626;23.380;2023-12-20T01:09:18;6.87;;;4.50;;
39300;SDS011;25019;42.626;23.380;2023-12-20T01:11:44;6.47;;;4.43;;
39300;SDS011;25019;42.626;23.380;2023-12-20T01:14:11;6.90;;;4.47;;
39300;SDS011;25019;42.626;23.380;2023-12-20T01:16:37;9.60;;;5.53;;
39300;SDS011;25019;42.626;23.380;2023-12-20T01:19:03;6.83;;;4.97;;
39300;SDS011;25019;42.626;23.380;2023-12-20T01:21:29;8.20;;;5.17;;
39300;SDS011;25019;42.626;23.380;2023-12-20T01:23:55;8.73;;;4.73;;
39300;SDS011;25019;42.626;23.380;2023-12-20T01:26:21;9.83;;;4.90;;
39300;SDS011;25019;42.626;23.380;2023-12-20T01:28:46;6.90;;;4.10;;
39300;SDS011;25019;42.626;23.380;2023-12-20T01:31:12;9.10;;;4.90;;
39300;SDS011;25019;42.626;23.380;2023-12-20T01:33:38;11.40;;;5.57;;
39300;SDS011;25019;42.626;23.380;2023-12-20T01:36:04;10.33;;;5.73;;
39300;SDS011;25019;42.626;23.380;2023-12-20T01:38:30;8.87;;;5.80;;
39300;SDS011;25019;42.626;23.380;2023-12-20T01:40:56;11.40;;;5.40;;
39300;SDS011;25019;42.626;23.380;2023-12-20T01:43:22;9.33;;;5.00;;
39300;SDS011;25019;42.626;23.380;2023-12-20T01:45:47;8.10;;;5.67;;
39300;SDS011;25019;42.626;23.380;2023-12-20T01:48:14;11.23;;;5.77;;
39300;SDS011;25019;42.626;23.380;2023-12-20T01:50:41;9.10;;;5.60;;
39300;SDS011;25019;42.626;23.380;2023-12-20T01:53:09;9.90;;;5.67;;
39300;SDS011;25019;42.626;23.380;2023-12-20T01:55:38;9.07;;;5.47;;
39300;SDS011;25019;42.626;23.380;2023-12-20T01:58:08;9.33;;;5.77;;
39300;SDS011;25019;42.626;23.380;2023-12-20T02:00:35;9.27;;;5.17;;
39300;SDS011;25019;42.626;23.380;2023-12-20T02:03:02;8.33;;;5.20;;
39300;SDS011;25019;42.626;23.380;2023-12-20T02:05:31;9.27;;;5.87;;
39300;SDS011;25019;42.626;23.380;2023-12-20T02:07:59;10.50;;;5.83;;
39300;SDS011;25019;42.626;23.380;2023-12-20T02:10:25;12.50;;;5.37;;
39300;SDS011;25019;42.626;23.380;2023-12-20T02:12:51;10.70;;;5.50;;
39300;SDS011;25019;42.626;23.380;2023-12-20T02:15:17;8.93;;;5.30;;
39300;SDS011;25019;42.626;23.380;2023-12-20T02:17:43;8.20;;;4.77;;
39300;SDS011;25019;42.626;23.380;2023-12-20T02:20:10;9.40;;;5.63;;
39300;SDS011;25019;42.626;23.380;2023-12-20T02:22:35;8.17;;;5.40;;
39300;SDS011;25019;42.626;23.380;2023-12-20T02:25:02;10.10;;;5.33;;
39300;SDS011;25019;42.626;23.380;2023-12-20T02:27:28;8.07;;;5.13;;
39300;SDS011;25019;42.626;23.380;2023-12-20T02:29:54;8.07;;;4.70;;
39300;SDS011;25019;42.626;23.380;2023-12-20T02:32:20;7.80;;;5.13;;
39300;SDS011;25019;42.626;23.380;2023-12-20T02:34:47;7.40;;;4.80;;
39300;SDS011;25019;42.626;23.380;2023-12-20T02:37:14;8.10;;;5.20;;
39300;SDS011;25019;42.626;23.380;2023-12-20T02:39:40;8.77;;;5.23;;
39300;SDS011;25019;42.626;23.380;2023-12-20T02:42:06;10.73;;;6.07;;
39300;SDS011;25019;42.626;23.380;2023-12-20T02:44:31;11.97;;;6.20;;
39300;SDS011;25019;42.626;23.380;2023-12-20T02:46:57;11.90;;;6.27;;
39300;SDS011;25019;42.626;23.380;2023-12-20T02:49:23;10.53;;;6.13;;
39300;SDS011;25019;42.626;23.380;2023-12-20T02:51:49;9.70;;;5.60;;
39300;SDS011;25019;42.626;23.380;2023-12-20T02:54:15;11.73;;;6.60;;
39300;SDS011;25019;42.626;23.380;2023-12-20T02:56:41;10.03;;;6.50;;
39300;SDS011;25019;42.626;23.380;2023-12-20T02:59:07;12.10;;;6.13;;
39300;SDS011;25019;42.626;23.380;2023-12-20T03:01:34;10.27;;;6.20;;
39300;SDS011;25019;42.626;23.380;2023-12-20T03:04:00;10.77;;;6.03;;
39300;SDS011;25019;42.626;23.380;2023-12-20T03:06:26;9.83;;;6.17;;
39300;SDS011;25019;42.626;23.380;2023-12-20T03:08:52;10.93;;;6.57;;
39300;SDS011;25019;42.626;23.380;2023-12-20T03:11:18;9.37;;;5.93;;
39300;SDS011;25019;42.626;23.380;2023-12-20T03:13:44;9.60;;;6.07;;
39300;SDS011;25019;42.626;23.380;2023-12-20T03:16:10;12.63;;;6.43;;
39300;SDS011;25019;42.626;23.380;2023-12-20T03:18:37;11.90;;;7.13;;
39300;SDS011;25019;42.626;23.380;2023-12-20T03:21:03;13.13;;;7.23;;
39300;SDS011;25019;42.626;23.380;2023-12-20T03:23:29;11.93;;;6.30;;
39300;SDS011;25019;42.626;23.380;2023-12-20T03:25:57;11.50;;;6.37;;
39300;SDS011;25019;42.626;23.380;2023-12-20T03:28:24;9.90;;;6.03;;
39300;SDS011;25019;42.626;23.380;2023-12-20T03:30:50;7.73;;;5.43;;
39300;SDS011;25019;42.626;23.380;2023-12-20T03:33:16;8.73;;;5.50;;
39300;SDS011;25019;42.626;23.380;2023-12-20T03:35:41;11.57;;;5.90;;
39300;SDS011;25019;42.626;23.380;2023-12-20T03:38:07;7.77;;;4.93;;
39300;SDS011;25019;42.626;23.380;2023-12-20T03:40:33;8.93;;;4.70;;
39300;SDS011;25019;42.626;23.380;2023-12-20T03:42:58;9.37;;;5.13;;
39300;SDS011;25019;42.626;23.380;2023-12-20T03:45:24;10.03;;;4.90;;
39300;SDS011;25019;42.626;23.380;2023-12-20T03:47:50;9.93;;;5.43;;
39300;SDS011;25019;42.626;23.380;2023-12-20T03:50:24;6.70;;;4.63;;
39300;SDS011;25019;42.626;23.380;2023-12-20T03:52:51;7.60;;;5.43;;
39300;SDS011;25019;42.626;23.380;2023-12-20T03:55:17;7.67;;;4.87;;
39300;SDS011;25019;42.626;23.380;2023-12-20T03:57:43;9.60;;;4.97;;
39300;SDS011;25019;42.626;23.380;2023-12-20T04:00:09;10.63;;;6.17;;
39300;SDS011;25019;42.626;23.380;2023-12-20T04:02:39;7.30;;;4.53;;
39300;SDS011;25019;42.626;23.380;2023-12-20T04:05:06;6.57;;;4.27;;
39300;SDS011;25019;42.626;23.380;2023-12-20T04:07:32;10.23;;;6.00;;
39300;SDS011;25019;42.626;23.380;2023-12-20T04:09:59;10.47;;;6.20;;
39300;SDS011;25019;42.626;23.380;2023-12-20T04:12:26;10.87;;;6.40;;
39300;SDS011;25019;42.626;23.380;2023-12-20T04:14:53;13.33;;;7.43;;
39300;SDS011;25019;42.626;23.380;2023-12-20T04:17:19;12.53;;;6.97;;
39300;SDS011;25019;42.626;23.380;2023-12-20T04:19:45;13.83;;;8.10;;
39300;SDS011;25019;42.626;23.380;2023-12-20T04:22:11;11.67;;;7.93;;
39300;SDS011;25019;42.626;23.380;2023-12-20T04:24:37;10.53;;;7.40;;
39300;SDS011;25019;42.626;23.380;2023-12-20T04:27:02;16.37;;;8.40;;
39300;SDS011;25019;42.626;23.380;2023-12-20T04:29:28;12.47;;;6.90;;
39300;SDS011;25019;42.626;23.380;2023-12-20T04:31:54;10.20;;;6.07;;
39300;SDS011;25019;42.626;23.380;2023-12-20T04:34:21;14.20;;;6.37;;
39300;SDS011;25019;42.626;23.380;2023-12-20T04:36:48;12.17;;;6.30;;
39300;SDS011;25019;42.626;23.380;2023-12-20T04:39:14;9.00;;;4.77;;
39300;SDS011;25019;42.626;23.380;2023-12-20T04:41:42;8.30;;;5.67;;
39300;SDS011;25019;42.626;23.380;2023-12-20T04:44:08;9.23;;;5.80;;
39300;SDS011;25019;42.626;23.380;2023-12-20T04:46:34;12.43;;;6.07;;
39300;SDS011;25019;42.626;23.380;2023-12-20T04:49:00;7.50;;;5.50;;
39300;SDS011;25019;42.626;23.380;2023-12-20T04:51:25;10.23;;;5.53;;
39300;SDS011;25019;42.626;23.380;2023-12-20T04:53:51;10.53;;;5.23;;
39300;SDS011;25019;42.626;23.380;2023-12-20T04:56:17;9.00;;;5.20;;
39300;SDS011;25019;42.626;23.380;2023-12-20T04:58:43;11.13;;;5.47;;
39300;SDS011;25019;42.626;23.380;2023-12-20T05:01:08;8.33;;;4.67;;
39300;SDS011;25019;42.626;23.380;2023-12-20T05:03:35;9.27;;;5.80;;
39300;SDS011;25019;42.626;23.380;2023-12-20T05:06:01;8.00;;;4.80;;
39300;SDS011;25019;42.626;23.380;2023-12-20T05:08:26;8.40;;;5.30;;
39300;SDS011;25019;42.626;23.380;2023-12-20T05:10:54;9.60;;;5.07;;
39300;SDS011;25019;42.626;23.380;2023-12-20T05:13:20;10.13;;;5.30;;
39300;SDS011;25019;42.626;23.380;2023-12-20T05:15:45;18.77;;;10.63;;
39300;SDS011;25019;42.626;23.380;2023-12-20T05:18:12;30.80;;;16.77;;
39300;SDS011;25019;42.626;23.380;2023-12-20T05:20:38;30.80;;;16.67;;
39300;SDS011;25019;42.626;23.380;2023-12-20T05:23:04;25.93;;;16.00;;
39300;SDS011;25019;42.626;23.380;2023-12-20T05:25:30;29.07;;;16.47;;
39300;SDS011;25019;42.626;23.380;2023-12-20T05:27:57;26.07;;;15.13;;
39300;SDS011;25019;42.626;23.380;2023-12-20T05:30:23;26.30;;;15.40;;
39300;SDS011;25019;42.626;23.380;2023-12-20T05:32:48;29.10;;;15.77;;
39300;SDS011;25019;42.626;23.380;2023-12-20T05:35:14;30.63;;;16.60;;
39300;SDS011;25019;42.626;23.380;2023-12-20T05:37:41;31.97;;;13.30;;
39300;SDS011;25019;42.626;23.380;2023-12-20T05:40:07;29.97;;;15.13;;
39300;SDS011;25019;42.626;23.380;2023-12-20T05:42:36;25.57;;;14.50;;
39300;SDS011;25019;42.626;23.380;2023-12-20T05:45:04;25.00;;;14.37;;
39300;SDS011;25019;42.626;23.380;2023-12-20T05:47:31;23.47;;;13.73;;
39300;SDS011;25019;42.626;23.380;2023-12-20T05:49:57;27.27;;;13.93;;
39300;SDS011;25019;42.626;23.380;2023-12-20T05:52:22;30.37;;;14.93;;
39300;SDS011;25019;42.626;23.380;2023-12-20T05:54:48;28.93;;;15.70;;
39300;SDS011;25019;42.626;23.380;2023-12-20T05:57:14;28.53;;;15.20;;
39300;SDS011;25019;42.626;23.380;2023-12-20T05:59:40;29.17;;;14.90;;
39300;SDS011;25019;42.626;23.380;2023-12-20T06:02:06;28.27;;;15.63;;
39300;SDS011;25019;42.626;23.380;2023-12-20T06:04:32;32.53;;;15.87;;
39300;SDS011;25019;42.626;23.380;2023-12-20T06:06:58;28.97;;;14.83;;
39300;SDS011;25019;42.626;23.380;2023-12-20T06:09:25;34.67;;;17.27;;
39300;SDS011;25019;42.626;23.380;2023-12-20T06:11:52;38.23;;;16.43;;
39300;SDS011;25019;42.626;23.380;2023-12-20T06:14:18;29.10;;;13.77;;
39300;SDS011;25019;42.626;23.380;2023-12-20T06:16:45;30.77;;;14.47;;
39300;SDS011;25019;42.626;23.380;2023-12-20T06:19:11;34.53;;;17.27;;
39300;SDS011;25019;42.626;23.380;2023-12-20T06:21:37;38.63;;;18.43;;
39300;SDS011;25019;42.626;23.380;2023-12-20T06:24:02;41.30;;;18.27;;
39300;SDS011;25019;42.626;23.380;2023-12-20T06:26:28;34.43;;;16.87;;
39300;SDS011;25019;42.626;23.380;2023-12-20T06:28:54;35.97;;;16.30;;
39300;SDS011;25019;42.626;23.380;2023-12-20T06:31:20;31.70;;;17.10;;
39300;SDS011;25019;42.626;23.380;2023-12-20T06:33:46;30.53;;;15.90;;
39300;SDS011;25019;42.626;23.380;2023-12-20T06:36:12;41.30;;;16.90;;
39300;SDS011;25019;42.626;23.380;2023-12-20T06:38:38;32.00;;;17.37;;
39300;SDS011;25019;42.626;23.380;2023-12-20T06:41:05;33.13;;;17.10;;
39300;SDS011;25019;42.626;23.380;2023-12-20T06:43:31;32.37;;;16.80;;
39300;SDS011;25019;42.626;23.380;2023-12-20T06:46:02;35.97;;;17.70;;
39300;SDS011;25019;42.626;23.380;2023-12-20T06:48:28;31.13;;;16.27;;
39300;SDS011;25019;42.626;23.380;2023-12-20T06:50:54;37.37;;;18.03;;
39300;SDS011;25019;42.626;23.380;2023-12-20T06:53:20;28.43;;;15.83;;
39300;SDS011;25019;42.626;23.380;2023-12-20T06:55:46;36.00;;;16.47;;
39300;SDS011;25019;42.626;23.380;2023-12-20T06:58:12;40.23;;;16.90;;
39300;SDS011;25019;42.626;23.380;2023-12-20T07:00:37;40.00;;;17.73;;
39300;SDS011;25019;42.626;23.380;2023-12-20T07:03:04;36.37;;;17.53;;
39300;SDS011;25019;42.626;23.380;2023-12-20T07:05:29;30.77;;;16.60;;
39300;SDS011;25019;42.626;23.380;2023-12-20T07:07:55;32.83;;;17.43;;
39300;SDS011;25019;42.626;23.380;2023-12-20T07:10:24;31.80;;;14.43;;
39300;SDS011;25019;42.626;23.380;2023-12-20T07:12:50;28.03;;;14.90;;
39300;SDS011;25019;42.626;23.380;2023-12-20T07:15:20;26.93;;;13.67;;
39300;SDS011;25019;42.626;23.380;2023-12-20T07:17:47;24.87;;;13.80;;
39300;SDS011;25019;42.626;23.380;2023-12-20T07:20:13;24.83;;;14.07;;
39300;SDS011;25019;42.626;23.380;2023-12-20T07:22:38;26.90;;;13.23;;
39300;SDS011;25019;42.626;23.380;2023-12-20T07:25:04;24.30;;;12.23;;
39300;SDS011;25019;42.626;23.380;2023-12-20T07:27:30;21.90;;;12.43;;
39300;SDS011;25019;42.626;23.380;2023-12-20T07:29:56;26.17;;;14.53;;
39300;SDS011;25019;42.626;23.380;2023-12-20T07:32:22;27.33;;;14.77;;
39300;SDS011;25019;42.626;23.380;2023-12-20T07:34:48;27.47;;;15.87;;
39300;SDS011;25019;42.626;23.380;2023-12-20T07:37:14;29.63;;;15.27;;
39300;SDS011;25019;42.626;23.380;2023-12-20T07:39:40;33.43;;;16.90;;
39300;SDS011;25019;42.626;23.380;2023-12-20T07:42:06;30.50;;;16.77;;
39300;SDS011;25019;42.626;23.380;2023-12-20T07:44:33;28.33;;;15.57;;
39300;SDS011;25019;42.626;23.380;2023-12-20T07:46:59;31.13;;;16.37;;
39300;SDS011;25019;42.626;23.380;2023-12-20T07:49:26;31.37;;;15.63;;
39300;SDS011;25019;42.626;23.380;2023-12-20T07:51:52;34.73;;;18.37;;
39300;SDS011;25019;42.626;23.380;2023-12-20T07:54:17;41.53;;;19.03;;
39300;SDS011;25019;42.626;23.380;2023-12-20T07:56:43;44.90;;;19.90;;
39300;SDS011;25019;42.626;23.380;2023-12-20T07:59:09;44.43;;;20.73;;
39300;SDS011;25019;42.626;23.380;2023-12-20T08:01:34;45.63;;;19.67;;
39300;SDS011;25019;42.626;23.380;2023-12-20T08:04:00;61.27;;;25.00;;
39300;SDS011;25019;42.626;23.380;2023-12-20T08:06:26;50.17;;;22.43;;
39300;SDS011;25019;42.626;23.380;2023-12-20T08:08:51;60.97;;;24.40;;
39300;SDS011;25019;42.626;23.380;2023-12-20T08:11:17;55.10;;;25.60;;
39300;SDS011;25019;42.626;23.380;2023-12-20T08:13:43;56.60;;;23.90;;
39300;SDS011;25019;42.626;23.380;2023-12-20T08:16:09;70.43;;;26.80;;
39300;SDS011;25019;42.626;23.380;2023-12-20T08:18:34;54.40;;;24.80;;
39300;SDS011;25019;42.626;23.380;2023-12-20T08:21:00;64.17;;;27.10;;
39300;SDS011;25019;42.626;23.380;2023-12-20T08:23:27;66.03;;;28.57;;
39300;SDS011;25019;42.626;23.380;2023-12-20T08:25:52;65.20;;;28.53;;
39300;SDS011;25019;42.626;23.380;2023-12-20T08:28:18;53.37;;;26.00;;
39300;SDS011;25019;42.626;23.380;2023-12-20T08:30:44;73.50;;;30.13;;
39300;SDS011;25019;42.626;23.380;2023-12-20T08:33:10;81.80;;;33.30;;
39300;SDS011;25019;42.626;23.380;2023-12-20T08:35:38;60.67;;;28.73;;
39300;SDS011;25019;42.626;23.380;2023-12-20T08:38:05;73.80;;;32.90;;
39300;SDS011;25019;42.626;23.380;2023-12-20T08:40:31;78.27;;;33.70;;
39300;SDS011;25019;42.626;23.380;2023-12-20T08:42:59;77.63;;;32.57;;
39300;SDS011;25019;42.626;23.380;2023-12-20T08:45:25;70.27;;;28.90;;
39300;SDS011;25019;42.626;23.380;2023-12-20T08:47:51;79.90;;;31.87;;
39300;SDS011;25019;42.626;23.380;2023-12-20T08:50:17;79.40;;;32.07;;
39300;SDS011;25019;42.626;23.380;2023-12-20T08:52:43;68.30;;;31.03;;
39300;SDS011;25019;42.626;23.380;2023-12-20T08:55:09;63.00;;;28.10;;
39300;SDS011;25019;42.626;23.380;2023-12-20T08:57:35;62.40;;;27.53;;
39300;SDS011;25019;42.626;23.380;2023-12-20T09:00:02;56.40;;;26.43;;
39300;SDS011;25019;42.626;23.380;2023-12-20T09:02:28;62.63;;;26.90;;
39300;SDS011;25019;42.626;23.380;2023-12-20T09:04:54;54.30;;;24.13;;
39300;SDS011;25019;42.626;23.380;2023-12-20T09:07:27;57.30;;;23.77;;
39300;SDS011;25019;42.626;23.380;2023-12-20T09:09:55;50.87;;;23.97;;
39300;SDS011;25019;42.626;23.380;2023-12-20T09:12:21;55.53;;;24.23;;
39300;SDS011;25019;42.626;23.380;2023-12-20T09:14:48;54.03;;;25.47;;
39300;SDS011;25019;42.626;23.380;2023-12-20T09:17:15;46.77;;;24.00;;
39300;SDS011;25019;42.626;23.380;2023-12-20T09:19:41;57.33;;;26.40;;
39300;SDS011;25019;42.626;23.380;2023-12-20T09:22:09;58.80;;;25.30;;
39300;SDS011;25019;42.626;23.380;2023-12-20T09:24:35;54.13;;;24.87;;
39300;SDS011;25019;42.626;23.380;2023-12-20T09:27:01;57.80;;;25.90;;
39300;SDS011;25019;42.626;23.380;2023-12-20T09:29:27;55.83;;;27.00;;
39300;SDS011;25019;42.626;23.380;2023-12-20T09:31:53;55.17;;;25.13;;
39300;SDS011;25019;42.626;23.380;2023-12-20T09:34:19;70.23;;;30.20;;
39300;SDS011;25019;42.626;23.380;2023-12-20T09:36:46;70.80;;;29.67;;
39300;SDS011;25019;42.626;23.380;2023-12-20T09:39:16;64.17;;;29.27;;
39300;SDS011;25019;42.626;23.380;2023-12-20T09:41:51;70.53;;;30.47;;
39300;SDS011;25019;42.626;23.380;2023-12-20T09:44:19;69.83;;;31.37;;
39300;SDS011;25019;42.626;23.380;2023-12-20T09:46:45;74.90;;;32.63;;
39300;SDS011;25019;42.626;23.380;2023-12-20T09:49:15;72.93;;;31.13;;
39300;SDS011;25019;42.626;23.380;2023-12-20T09:51:43;75.43;;;32.30;;
39300;SDS011;25019;42.626;23.380;2023-12-20T09:54:15;78.40;;;32.57;;
39300;SDS011;25019;42.626;23.380;2023-12-20T09:56:42;66.37;;;29.80;;
39300;SDS011;25019;42.626;23.380;2023-12-20T09:59:08;56.73;;;27.10;;
39300;SDS011;25019;42.626;23.380;2023-12-20T10:01:34;62.93;;;29.00;;
39300;SDS011;25019;42.626;23.380;2023-12-20T10:04:01;58.43;;;28.23;;
39300;SDS011;25019;42.626;23.380;2023-12-20T10:06:40;68.53;;;29.60;;
39300;SDS011;25019;42.626;23.380;2023-12-20T10:09:08;64.30;;;30.47;;
39300;SDS011;25019;42.626;23.380;2023-12-20T10:11:37;57.33;;;28.47;;
39300;SDS011;25019;42.626;23.380;2023-12-20T10:14:04;65.70;;;28.07;;
39300;SDS011;25019;42.626;23.380;2023-12-20T10:16:31;64.40;;;30.83;;
39300;SDS011;25019;42.626;23.380;2023-12-20T10:18:58;68.43;;;30.60;;
39300;SDS011;25019;42.626;23.380;2023-12-20T10:21:25;61.00;;;29.43;;
39300;SDS011;25019;42.626;23.380;2023-12-20T10:23:54;61.13;;;28.73;;
39300;SDS011;25019;42.626;23.380;2023-12-20T10:26:26;60.23;;;28.97;;
39300;SDS011;25019;42.626;23.380;2023-12-20T10:28:56;59.40;;;27.37;;
39300;SDS011;25019;42.626;23.380;2023-12-20T10:31:31;61.40;;;27.97;;
39300;SDS011;25019;42.626;23.380;2023-12-20T10:33:59;50.47;;;24.17;;
39300;SDS011;25019;42.626;23.380;2023-12-20T10:36:26;52.97;;;25.67;;
39300;SDS011;25019;42.626;23.380;2023-12-20T10:38:53;60.23;;;27.33;;
39300;SDS011;25019;42.626;23.380;2023-12-20T10:41:25;60.77;;;28.17;;
39300;SDS011;25019;42.626;23.380;2023-12-20T10:43:56;52.10;;;25.07;;
39300;SDS011;25019;42.626;23.380;2023-12-20T10:46:23;49.40;;;25.87;;
39300;SDS011;25019;42.626;23.380;2023-12-20T10:48:52;56.77;;;27.23;;
39300;SDS011;25019;42.626;23.380;2023-12-20T10:51:19;49.57;;;26.53;;
39300;SDS011;25019;42.626;23.380;2023-12-20T10:53:47;56.50;;;28.47;;
39300;SDS011;25019;42.626;23.380;2023-12-20T10:56:15;53.80;;;29.50;;
39300;SDS011;25019;42.626;23.380;2023-12-20T10:58:43;58.20;;;28.47;;
39300;SDS011;25019;42.626;23.380;2023-12-20T11:01:12;67.27;;;31.67;;
39300;SDS011;25019;42.626;23.380;2023-12-20T11:03:46;67.53;;;32.30;;
39300;SDS011;25019;42.626;23.380;2023-12-20T11:09:04;58.37;;;28.17;;
39300;SDS011;25019;42.626;23.380;2023-12-20T11:12:46;65.00;;;32.77;;
39300;SDS011;25019;42.626;23.380;2023-12-20T11:14:52;65.47;;;32.33;;
39300;SDS011;25019;42.626;23.380;2023-12-20T11:17:22;69.73;;;33.93;;
39300;SDS011;25019;42.626;23.380;2023-12-20T11:22:25;50.53;;;27.00;;
39300;SDS011;25019;42.626;23.380;2023-12-20T11:24:52;58.13;;;29.20;;
39300;SDS011;25019;42.626;23.380;2023-12-20T11:27:19;48.87;;;26.83;;
39300;SDS011;25019;42.626;23.380;2023-12-20T11:29:51;52.93;;;27.70;;
39300;SDS011;25019;42.626;23.380;2023-12-20T11:34:59;49.47;;;24.63;;
39300;SDS011;25019;42.626;23.380;2023-12-20T11:37:29;52.73;;;25.47;;
39300;SDS011;25019;42.626;23.380;2023-12-20T11:40:06;51.37;;;25.07;;
39300;SDS011;25019;42.626;23.380;2023-12-20T11:42:39;49.03;;;25.10;;
39300;SDS011;25019;42.626;23.380;2023-12-20T11:45:09;54.00;;;25.27;;
39300;SDS011;25019;42.626;23.380;2023-12-20T11:47:48;55.97;;;26.03;;
39300;SDS011;25019;42.626;23.380;2023-12-20T11:50:15;48.73;;;27.10;;
39300;SDS011;25019;42.626;23.380;2023-12-20T11:52:41;54.90;;;28.17;;
39300;SDS011;25019;42.626;23.380;2023-12-20T11:55:07;55.83;;;27.63;;
39300;SDS011;25019;42.626;23.380;2023-12-20T11:57:33;54.97;;;28.80;;
39300;SDS011;25019;42.626;23.380;2023-12-20T11:59:59;59.20;;;30.70;;
39300;SDS011;25019;42.626;23.380;2023-12-20T12:02:25;63.27;;;30.37;;
39300;SDS011;25019;42.626;23.380;2023-12-20T12:04:51;61.67;;;30.00;;
39300;SDS011;25019;42.626;23.380;2023-12-20T12:07:17;64.07;;;31.10;;
39300;SDS011;25019;42.626;23.380;2023-12-20T12:09:43;57.07;;;29.70;;
39300;SDS011;25019;42.626;23.380;2023-12-20T12:12:09;59.40;;;31.77;;
39300;SDS011;25019;42.626;23.380;2023-12-20T12:14:37;62.03;;;31.23;;
39300;SDS011;25019;42.626;23.380;2023-12-20T12:17:03;59.53;;;30.40;;
39300;SDS011;25019;42.626;23.380;2023-12-20T12:19:30;70.00;;;33.70;;
39300;SDS011;25019;42.626;23.380;2023-12-20T12:22:04;57.07;;;31.23;;
39300;SDS011;25019;42.626;23.380;2023-12-20T12:24:34;59.70;;;31.73;;
39300;SDS011;25019;42.626;23.380;2023-12-20T12:27:00;59.23;;;32.47;;
39300;SDS011;25019;42.626;23.380;2023-12-20T12:29:26;56.63;;;29.30;;
39300;SDS011;25019;42.626;23.380;2023-12-20T12:31:52;53.27;;;29.40;;
39300;SDS011;25019;42.626;23.380;2023-12-20T12:34:18;51.30;;;28.30;;
39300;SDS011;25019;42.626;23.380;2023-12-20T12:36:44;57.70;;;30.30;;
39300;SDS011;25019;42.626;23.380;2023-12-20T12:39:14;56.63;;;29.83;;
39300;SDS011;25019;42.626;23.380;2023-12-20T12:41:43;56.90;;;28.40;;
39300;SDS011;25019;42.626;23.380;2023-12-20T12:44:09;52.23;;;27.37;;
39300;SDS011;25019;42.626;23.380;2023-12-20T12:46:35;57.90;;;30.50;;
39300;SDS011;25019;42.626;23.380;2023-12-20T12:49:01;61.97;;;29.73;;
39300;SDS011;25019;42.626;23.380;2023-12-20T12:51:26;45.47;;;25.67;;
39300;SDS011;25019;42.626;23.380;2023-12-20T12:53:52;48.13;;;26.80;;
39300;SDS011;25019;42.626;23.380;2023-12-20T12:56:18;53.87;;;28.57;;
39300;SDS011;25019;42.626;23.380;2023-12-20T12:58:44;54.23;;;27.40;;
39300;SDS011;25019;42.626;23.380;2023-12-20T13:01:10;52.13;;;28.87;;
39300;SDS011;25019;42.626;23.380;2023-12-20T13:03:37;51.83;;;27.93;;
39300;SDS011;25019;42.626;23.380;2023-12-20T13:06:04;51.73;;;25.83;;
39300;SDS011;25019;42.626;23.380;2023-12-20T13:08:31;53.53;;;26.37;;
39300;SDS011;25019;42.626;23.380;2023-12-20T13:10:57;52.53;;;26.40;;
39300;SDS011;25019;42.626;23.380;2023-12-20T13:13:28;51.47;;;23.27;;
39300;SDS011;25019;42.626;23.380;2023-12-20T13:15:54;45.50;;;23.63;;
39300;SDS011;25019;42.626;23.380;2023-12-20T13:18:20;60.40;;;27.80;;
39300;SDS011;25019;42.626;23.380;2023-12-20T13:20:47;50.90;;;26.57;;
39300;SDS011;25019;42.626;23.380;2023-12-20T13:23:13;52.50;;;27.23;;
39300;SDS011;25019;42.626;23.380;2023-12-20T13:25:39;52.20;;;26.73;;
39300;SDS011;25019;42.626;23.380;2023-12-20T13:28:06;59.33;;;31.73;;
39300;SDS011;25019;42.626;23.380;2023-12-20T13:30:31;63.70;;;31.00;;
39300;SDS011;25019;42.626;23.380;2023-12-20T13:32:57;70.77;;;34.53;;
39300;SDS011;25019;42.626;23.380;2023-12-20T13:35:23;66.13;;;33.93;;
39300;SDS011;25019;42.626;23.380;2023-12-20T13:37:48;66.90;;;34.17;;
39300;SDS011;25019;42.626;23.380;2023-12-20T13:40:14;67.70;;;35.13;;
39300;SDS011;25019;42.626;23.380;2023-12-20T13:42:40;70.30;;;34.40;;
39300;SDS011;25019;42.626;23.380;2023-12-20T13:45:06;67.70;;;35.40;;
39300;SDS011;25019;42.626;23.380;2023-12-20T13:47:32;97.67;;;51.67;;
39300;SDS011;25019;42.626;23.380;2023-12-20T13:49:58;110.17;;;52.23;;
39300;SDS011;25019;42.626;23.380;2023-12-20T13:52:24;111.03;;;48.93;;
39300;SDS011;25019;42.626;23.380;2023-12-20T13:54:50;104.67;;;51.77;;
39300;SDS011;25019;42.626;23.380;2023-12-20T13:57:16;100.70;;;48.87;;
39300;SDS011;25019;42.626;23.380;2023-12-20T13:59:41;101.63;;;49.37;;
39300;SDS011;25019;42.626;23.380;2023-12-20T14:02:07;95.67;;;49.23;;
39300;SDS011;25019;42.626;23.380;2023-12-20T14:04:33;96.70;;;50.17;;
39300;SDS011;25019;42.626;23.380;2023-12-20T14:06:59;95.03;;;46.90;;
39300;SDS011;25019;42.626;23.380;2023-12-20T14:09:24;104.13;;;47.37;;
39300;SDS011;25019;42.626;23.380;2023-12-20T14:11:50;101.50;;;47.80;;
39300;SDS011;25019;42.626;23.380;2023-12-20T14:14:16;98.43;;;46.00;;
39300;SDS011;25019;42.626;23.380;2023-12-20T14:16:41;85.23;;;43.27;;
39300;SDS011;25019;42.626;23.380;2023-12-20T14:19:10;94.60;;;44.83;;
39300;SDS011;25019;42.626;23.380;2023-12-20T14:21:36;83.63;;;43.13;;